Time;durP1;ratioP1;P1;durP2;ratioP2;P2;SDS_P1;SDS_P2;PMS_P1;PMS_P2;Temp;Humidity;BMP_temperature;BMP_pressure;BME280_temperature;BME280_humidity;BME280_pressure;Samples;Min_cycle;Max_cycle;Signal;HPM_P1;HPM_P2
2021/05/20 00:01:23;;;;;;;1.67;0.85;;;14.90;82.30;;;;;;5119441;28;20048;-35
2021/05/20 00:03:49;;;;;;;1.15;0.70;;;14.90;82.40;;;;;;5118942;28;20157;-34
2021/05/20 00:06:15;;;;;;;0.90;0.80;;;14.90;82.50;;;;;;5119388;28;20035;-34
2021/05/20 00:08:41;;;;;;;0.80;0.80;;;14.90;82.40;;;;;;5119130;28;20113;-34
2021/05/20 00:11:06;;;;;;;0.85;0.85;;;14.90;82.30;;;;;;5119408;28;20035;-34
2021/05/20 00:13:32;;;;;;;3.15;1.02;;;14.90;82.10;;;;;;5118488;28;20102;-34
2021/05/20 00:15:58;;;;;;;1.77;1.17;;;14.90;82.00;;;;;;5118888;28;20077;-34
2021/05/20 00:18:23;;;;;;;2.95;1.58;;;14.90;82.00;;;;;;5118751;28;20024;-34
2021/05/20 00:20:49;;;;;;;1.98;1.15;;;14.90;81.90;;;;;;5119121;28;20039;-34
2021/05/20 00:23:15;;;;;;;3.08;1.35;;;14.90;82.00;;;;;;5118620;28;20366;-34
2021/05/20 00:25:40;;;;;;;1.25;1.17;;;14.90;81.80;;;;;;5118861;28;20036;-35
2021/05/20 00:28:06;;;;;;;3.85;1.73;;;14.90;81.80;;;;;;5118530;28;20032;-35
2021/05/20 00:30:32;;;;;;;2.75;1.38;;;14.90;81.80;;;;;;5100682;28;20032;-34
2021/05/20 00:32:57;;;;;;;1.83;1.50;;;14.90;81.70;;;;;;5118290;28;20042;-34
2021/05/20 00:35:23;;;;;;;1.48;1.35;;;14.90;81.70;;;;;;5117598;28;20027;-34
2021/05/20 00:37:49;;;;;;;2.15;1.67;;;14.90;81.60;;;;;;5118658;28;20024;-34
2021/05/20 00:40:15;;;;;;;2.33;1.80;;;14.90;81.60;;;;;;5118695;28;20395;-34
2021/05/20 00:42:44;;;;;;;3.80;1.65;;;14.90;81.40;;;;;;5118220;28;20038;-35
2021/05/20 00:45:11;;;;;;;2.35;1.90;;;14.90;81.30;;;;;;5118611;28;20318;-34
2021/05/20 00:47:37;;;;;;;4.00;2.30;;;15.00;81.20;;;;;;5118158;28;20312;-35
2021/05/20 00:50:06;;;;;;;2.63;1.88;;;14.90;81.00;;;;;;5118163;28;20027;-35
2021/05/20 00:52:31;;;;;;;1.75;1.63;;;14.90;81.10;;;;;;5117940;28;20118;-34
2021/05/20 00:54:59;;;;;;;3.08;1.70;;;14.90;81.00;;;;;;5118384;28;20059;-34
2021/05/20 00:57:26;;;;;;;2.15;1.58;;;14.90;81.00;;;;;;5118256;28;20030;-34
2021/05/20 00:59:52;;;;;;;1.70;1.40;;;14.90;81.00;;;;;;5117942;28;20020;-34
2021/05/20 01:02:19;;;;;;;4.15;1.70;;;14.90;81.00;;;;;;5118472;28;20040;-34
2021/05/20 01:04:45;;;;;;;2.35;1.77;;;14.90;80.90;;;;;;5118087;28;20314;-34
2021/05/20 01:07:11;;;;;;;1.40;1.30;;;14.90;80.70;;;;;;5118336;28;20127;-36
2021/05/20 01:09:37;;;;;;;1.58;1.33;;;14.90;80.80;;;;;;5117869;28;20055;-34
2021/05/20 01:12:06;;;;;;;2.95;1.30;;;14.90;80.50;;;;;;5117857;28;20039;-34
2021/05/20 01:14:44;;;;;;;1.27;1.08;;;14.90;80.50;;;;;;5117562;28;20408;-34
2021/05/20 01:17:11;;;;;;;1.95;1.50;;;14.90;80.50;;;;;;5117783;28;20031;-35
2021/05/20 01:19:42;;;;;;;1.30;1.20;;;14.90;80.60;;;;;;5117531;28;20080;-34
2021/05/20 01:22:08;;;;;;;1.65;1.02;;;14.90;80.30;;;;;;5118148;28;20407;-34
2021/05/20 01:24:34;;;;;;;2.20;1.45;;;14.90;80.00;;;;;;5117663;28;20032;-34
2021/05/20 01:27:03;;;;;;;1.98;1.35;;;14.80;79.90;;;;;;5117814;28;20028;-34
2021/05/20 01:29:29;;;;;;;3.95;1.27;;;14.90;80.00;;;;;;5117264;28;20458;-34
2021/05/20 01:31:55;;;;;;;1.95;1.30;;;14.80;80.10;;;;;;5117708;28;20028;-34
2021/05/20 01:34:21;;;;;;;1.83;1.10;;;14.80;80.30;;;;;;5117426;28;20023;-34
2021/05/20 01:36:46;;;;;;;1.85;1.30;;;14.80;80.40;;;;;;5117789;28;20319;-35
2021/05/20 01:39:12;;;;;;;1.40;1.30;;;14.80;80.40;;;;;;5117192;28;20127;-35
2021/05/20 01:41:38;;;;;;;1.80;1.67;;;14.80;80.60;;;;;;5117689;28;20027;-35
2021/05/20 01:44:03;;;;;;;4.07;1.83;;;14.80;80.80;;;;;;5117375;28;20024;-35
2021/05/20 01:46:29;;;;;;;1.88;1.42;;;14.80;80.70;;;;;;5117449;28;20060;-34
2021/05/20 01:48:55;;;;;;;1.42;1.33;;;14.80;80.90;;;;;;5116956;28;20024;-34
2021/05/20 01:51:22;;;;;;;4.63;1.60;;;14.80;81.00;;;;;;5117367;28;20449;-35
2021/05/20 01:53:53;;;;;;;2.72;1.52;;;14.80;80.60;;;;;;5116932;28;20027;-34
2021/05/20 01:56:20;;;;;;;2.00;1.63;;;14.80;80.40;;;;;;5117286;28;20031;-35
2021/05/20 01:58:47;;;;;;;5.03;1.48;;;14.80;80.50;;;;;;5116739;28;20059;-35
2021/05/20 02:01:13;;;;;;;2.72;1.40;;;14.80;80.20;;;;;;5116960;28;20044;-34
2021/05/20 02:03:40;;;;;;;2.38;1.30;;;14.80;79.90;;;;;;5116943;28;20027;-35
2021/05/20 02:06:07;;;;;;;1.65;1.55;;;14.70;80.40;;;;;;5099172;28;20134;-36
2021/05/20 02:08:34;;;;;;;1.65;1.42;;;14.70;80.20;;;;;;5116919;28;20411;-37
2021/05/20 02:11:00;;;;;;;3.10;1.35;;;14.70;80.30;;;;;;5116986;28;20047;-36
2021/05/20 02:13:26;;;;;;;5.32;1.80;;;14.70;80.10;;;;;;5116318;28;20028;-37
2021/05/20 02:15:52;;;;;;;2.30;1.73;;;14.70;80.30;;;;;;5116785;28;20097;-36
2021/05/20 02:18:18;;;;;;;1.73;1.50;;;14.70;80.00;;;;;;5116530;28;20102;-36
2021/05/20 02:20:44;;;;;;;3.15;1.90;;;14.70;80.10;;;;;;5116919;28;20035;-37
2021/05/20 02:23:11;;;;;;;2.00;1.67;;;14.70;80.30;;;;;;5116301;28;20023;-37
2021/05/20 02:25:37;;;;;;;5.85;2.08;;;14.70;80.50;;;;;;5116588;28;20036;-37
2021/05/20 02:28:03;;;;;;;3.42;2.10;;;14.70;80.90;;;;;;5116348;28;20061;-37
2021/05/20 02:30:29;;;;;;;4.28;2.08;;;14.70;81.00;;;;;;5116346;28;20037;-37
2021/05/20 02:32:56;;;;;;;6.75;2.10;;;14.60;81.00;;;;;;5116347;28;20043;-36
2021/05/20 02:35:22;;;;;;;4.72;2.15;;;14.60;81.30;;;;;;5116242;28;20467;-36
2021/05/20 02:37:48;;;;;;;4.32;2.25;;;14.60;81.50;;;;;;5116083;28;20024;-36
2021/05/20 02:40:15;;;;;;;2.92;2.38;;;14.60;81.10;;;;;;5116578;28;20032;-36
2021/05/20 02:42:40;;;;;;;8.13;2.13;;;14.60;81.00;;;;;;5116405;28;20042;-36
2021/05/20 02:45:08;;;;;;;5.03;2.00;;;14.60;81.10;;;;;;5116374;28;20106;-36
2021/05/20 02:47:36;;;;;;;2.78;2.38;;;14.60;81.10;;;;;;5115988;28;20092;-36
2021/05/20 02:50:03;;;;;;;5.20;2.08;;;14.50;80.80;;;;;;5116274;28;20077;-37
2021/05/20 02:52:29;;;;;;;3.17;2.00;;;14.50;81.20;;;;;;5115811;28;20036;-37
2021/05/20 02:54:55;;;;;;;3.30;2.20;;;14.50;81.20;;;;;;5116056;28;20084;-36
2021/05/20 02:57:21;;;;;;;3.15;2.05;;;14.50;81.40;;;;;;5116467;28;20366;-36
2021/05/20 02:59:47;;;;;;;5.63;3.15;;;14.50;81.20;;;;;;5121613;28;20036;-36
2021/05/20 03:02:13;;;;;;;3.47;2.33;;;14.50;81.20;;;;;;5122989;28;20034;-36
2021/05/20 03:04:38;;;;;;;2.88;1.90;;;14.50;81.10;;;;;;5122748;27;20051;-36
2021/05/20 03:07:06;;;;;;;5.75;2.17;;;14.50;81.10;;;;;;5123430;28;20023;-37
2021/05/20 03:09:32;;;;;;;2.47;1.83;;;14.50;81.30;;;;;;5122909;28;20031;-36
2021/05/20 03:11:59;;;;;;;3.00;1.80;;;14.50;81.20;;;;;;5123128;28;20312;-36
2021/05/20 03:14:25;;;;;;;4.20;2.08;;;14.50;81.10;;;;;;5123177;27;20039;-36
2021/05/20 03:16:51;;;;;;;3.38;1.70;;;14.50;81.30;;;;;;5123260;28;20027;-36
2021/05/20 03:19:18;;;;;;;2.53;2.25;;;14.50;81.20;;;;;;5122547;28;20122;-36
2021/05/20 03:21:44;;;;;;;3.17;2.22;;;14.50;81.20;;;;;;5104779;28;20311;-36
2021/05/20 03:24:10;;;;;;;3.00;2.60;;;14.50;81.20;;;;;;5122569;27;20032;-36
2021/05/20 03:26:36;;;;;;;4.32;2.38;;;14.60;81.50;;;;;;5123017;28;20028;-36
2021/05/20 03:29:03;;;;;;;4.25;2.40;;;14.60;80.90;;;;;;5122411;27;20122;-36
2021/05/20 03:31:29;;;;;;;8.15;2.42;;;14.60;80.80;;;;;;5123047;28;20351;-36
2021/05/20 03:33:54;;;;;;;3.60;2.22;;;14.60;80.90;;;;;;5122091;28;20035;-36
2021/05/20 03:36:20;;;;;;;2.78;2.15;;;14.60;80.70;;;;;;5122999;28;20085;-36
2021/05/20 03:38:45;;;;;;;3.45;2.47;;;14.60;80.40;;;;;;5122327;28;20028;-36
2021/05/20 03:41:11;;;;;;;3.75;2.30;;;14.60;79.90;;;;;;5122836;28;20030;-37
2021/05/20 03:43:37;;;;;;;4.15;2.33;;;14.60;79.90;;;;;;5122293;27;20042;-36
2021/05/20 03:46:03;;;;;;;8.85;2.67;;;14.60;79.60;;;;;;5123001;28;20127;-36
2021/05/20 03:48:30;;;;;;;3.60;2.10;;;14.60;79.90;;;;;;5122180;28;20039;-36
2021/05/20 03:50:58;;;;;;;2.58;2.15;;;14.70;79.60;;;;;;5122651;28;20024;-36
2021/05/20 03:53:29;;;;;;;7.90;2.45;;;14.70;79.40;;;;;;5122253;27;20032;-36
2021/05/20 03:55:55;;;;;;;4.35;2.20;;;14.70;79.00;;;;;;5122433;28;20020;-36
2021/05/20 03:58:20;;;;;;;4.55;2.05;;;14.70;79.00;;;;;;5135346;27;20046;-36
2021/05/20 04:00:46;;;;;;;3.50;2.38;;;14.80;79.00;;;;;;5142811;27;20058;-36
2021/05/20 04:03:28;;;;;;;4.30;2.33;;;14.70;78.50;;;;;;5142495;27;20054;-37
2021/05/20 04:05:55;;;;;;;6.47;2.13;;;14.70;78.60;;;;;;5143107;27;20027;-36
2021/05/20 04:08:21;;;;;;;5.60;2.17;;;14.80;78.40;;;;;;5142643;27;20031;-36
2021/05/20 04:10:48;;;;;;;4.45;1.88;;;14.80;78.10;;;;;;5139319;27;20314;-36
2021/05/20 04:13:25;;;;;;;7.45;2.30;;;14.80;77.60;;;;;;5139026;27;20023;-36
2021/05/20 04:15:51;;;;;;;7.45;2.42;;;14.80;77.50;;;;;;5139784;27;20100;-36
2021/05/20 04:18:17;;;;;;;6.68;2.15;;;14.80;77.50;;;;;;5139299;27;20429;-36
2021/05/20 04:20:42;;;;;;;7.88;2.17;;;14.80;77.40;;;;;;5139627;27;20059;-36
2021/05/20 04:23:08;;;;;;;8.95;2.20;;;14.80;77.70;;;;;;5138932;27;20031;-36
2021/05/20 04:25:34;;;;;;;3.30;1.80;;;14.80;77.30;;;;;;5139326;27;20027;-37
2021/05/20 04:27:59;;;;;;;7.13;2.10;;;14.90;77.10;;;;;;5138922;27;20034;-36
2021/05/20 04:30:25;;;;;;;5.32;2.10;;;14.90;77.20;;;;;;5139136;27;20478;-36
2021/05/20 04:32:53;;;;;;;2.65;1.80;;;14.90;77.30;;;;;;5138548;27;20031;-36
2021/05/20 04:35:19;;;;;;;3.55;2.30;;;14.90;76.60;;;;;;5139033;27;20020;-36
2021/05/20 04:37:45;;;;;;;8.63;2.60;;;14.90;76.50;;;;;;5138679;27;20106;-36
2021/05/20 04:40:11;;;;;;;8.18;2.50;;;15.00;76.60;;;;;;5138672;27;20019;-37
2021/05/20 04:42:37;;;;;;;4.53;1.95;;;15.00;76.30;;;;;;5138503;27;20065;-37
2021/05/20 04:45:04;;;;;;;3.45;2.30;;;15.10;76.00;;;;;;5138868;27;20062;-37
2021/05/20 04:47:29;;;;;;;4.55;2.17;;;15.10;75.70;;;;;;5138346;27;20034;-37
2021/05/20 04:49:55;;;;;;;6.68;2.53;;;15.10;75.50;;;;;;5138676;27;20031;-36
2021/05/20 04:52:20;;;;;;;5.78;2.22;;;15.10;75.50;;;;;;5138678;27;20114;-36
2021/05/20 04:54:46;;;;;;;5.75;2.05;;;15.10;75.10;;;;;;5138180;27;20027;-36
2021/05/20 04:57:12;;;;;;;7.07;2.33;;;15.10;74.70;;;;;;5138829;27;20034;-37
2021/05/20 04:59:38;;;;;;;3.30;1.90;;;15.20;74.70;;;;;;5138327;27;20033;-36
2021/05/20 05:02:05;;;;;;;2.83;2.13;;;15.20;74.30;;;;;;5138599;27;20073;-36
2021/05/20 05:04:30;;;;;;;5.30;2.20;;;15.20;74.10;;;;;;5138052;27;20359;-37
2021/05/20 05:06:56;;;;;;;6.75;2.13;;;15.20;73.90;;;;;;5137964;27;20031;-37
2021/05/20 05:09:21;;;;;;;4.47;2.28;;;15.10;74.00;;;;;;5138151;27;20120;-37
2021/05/20 05:11:47;;;;;;;5.30;2.42;;;15.20;74.40;;;;;;5137751;27;20296;-37
2021/05/20 05:14:13;;;;;;;3.35;1.98;;;15.20;74.30;;;;;;5137920;27;20034;-37
2021/05/20 05:16:38;;;;;;;2.50;1.60;;;15.20;73.80;;;;;;5137604;27;20023;-37
2021/05/20 05:19:04;;;;;;;6.13;2.10;;;15.20;73.70;;;;;;5137663;27;20027;-37
2021/05/20 05:21:29;;;;;;;2.25;1.50;;;15.30;73.70;;;;;;5137785;27;20105;-37
2021/05/20 05:23:55;;;;;;;8.13;2.20;;;15.30;73.60;;;;;;5137780;27;20031;-37
2021/05/20 05:26:23;;;;;;;3.40;2.28;;;15.30;73.60;;;;;;5137997;27;20031;-37
2021/05/20 05:28:49;;;;;;;5.00;2.25;;;15.30;73.20;;;;;;5137477;27;20039;-37
2021/05/20 05:31:19;;;;;;;5.72;2.40;;;15.30;73.20;;;;;;5119629;27;20031;-37
2021/05/20 05:33:45;;;;;;;7.20;3.20;;;15.40;73.20;;;;;;5137246;27;20197;-37
2021/05/20 05:36:11;;;;;;;9.30;2.47;;;15.40;72.90;;;;;;5137751;27;20020;-37
2021/05/20 05:38:36;;;;;;;12.13;2.28;;;15.40;72.50;;;;;;5137837;27;20038;-37
2021/05/20 05:41:03;;;;;;;3.58;2.40;;;15.40;72.40;;;;;;5137884;27;20019;-36
2021/05/20 05:43:28;;;;;;;4.60;2.00;;;15.40;72.20;;;;;;5137238;27;20080;-36
2021/05/20 05:45:54;;;;;;;2.33;2.05;;;15.40;72.20;;;;;;5137621;27;20349;-36
2021/05/20 05:48:20;;;;;;;10.98;3.15;;;15.40;72.10;;;;;;5136528;27;20431;-36
2021/05/20 05:50:47;;;;;;;6.97;2.67;;;15.40;72.60;;;;;;5137760;27;20034;-36
2021/05/20 05:53:13;;;;;;;7.68;2.60;;;15.50;72.20;;;;;;5137417;27;20059;-36
2021/05/20 05:55:38;;;;;;;4.50;1.60;;;15.50;72.00;;;;;;5119017;27;20060;-36
2021/05/20 05:58:04;;;;;;;4.25;1.90;;;15.60;71.50;;;;;;5136943;27;20030;-36
2021/05/20 06:00:30;;;;;;;4.97;3.20;;;15.60;71.10;;;;;;5136527;27;20043;-36
2021/05/20 06:02:55;;;;;;;2.90;2.03;;;15.70;71.50;;;;;;5136404;27;20145;-36
2021/05/20 06:05:22;;;;;;;6.70;3.20;;;15.80;71.20;;;;;;5136512;27;20060;-37
2021/05/20 06:07:47;;;;;;;5.35;2.92;;;15.90;71.00;;;;;;5137198;27;20430;-36
2021/05/20 06:10:13;;;;;;;3.97;2.20;;;16.00;70.70;;;;;;5136917;27;20055;-36
2021/05/20 06:12:39;;;;;;;5.03;1.80;;;16.00;70.20;;;;;;5136746;27;20038;-36
2021/05/20 06:15:06;;;;;;;5.13;1.90;;;16.10;69.50;;;;;;5127074;27;20034;-37
2021/05/20 06:17:35;;;;;;;5.50;1.95;;;16.20;69.60;;;;;;5116494;28;20312;-37
2021/05/20 06:20:01;;;;;;;6.18;2.63;;;16.30;69.30;;;;;;5116232;28;20024;-37
2021/05/20 06:22:26;;;;;;;3.03;2.13;;;16.40;69.50;;;;;;5115789;28;20440;-37
2021/05/20 06:24:52;;;;;;;7.72;2.22;;;16.50;68.50;;;;;;5115767;28;20031;-37
2021/05/20 06:27:17;;;;;;;3.22;1.65;;;16.50;67.60;;;;;;5116417;28;20027;-37
2021/05/20 06:29:43;;;;;;;6.72;1.70;;;16.50;67.40;;;;;;5115801;28;20027;-37
2021/05/20 06:32:09;;;;;;;6.82;2.10;;;16.60;66.60;;;;;;5116314;28;20419;-37
2021/05/20 06:34:34;;;;;;;3.72;1.58;;;16.60;66.50;;;;;;5115255;28;20081;-37
2021/05/20 06:37:02;;;;;;;7.38;1.73;;;16.60;66.90;;;;;;5116214;28;20034;-37
2021/05/20 06:39:29;;;;;;;3.33;1.73;;;16.70;66.40;;;;;;5115728;28;20242;-37
2021/05/20 06:41:56;;;;;;;3.47;2.17;;;16.80;66.50;;;;;;5116375;28;20110;-37
2021/05/20 06:44:22;;;;;;;5.65;2.08;;;16.90;66.80;;;;;;5115779;28;20353;-37
2021/05/20 06:46:48;;;;;;;7.60;2.72;;;17.00;65.40;;;;;;5116366;28;20242;-37
2021/05/20 06:49:14;;;;;;;9.30;3.53;;;17.00;65.40;;;;;;5115698;28;20034;-37
2021/05/20 06:51:40;;;;;;;5.13;1.70;;;17.10;65.80;;;;;;5116148;28;20023;-37
2021/05/20 06:54:06;;;;;;;3.58;2.05;;;17.20;65.10;;;;;;5111880;28;20039;-37
2021/05/20 06:56:32;;;;;;;3.63;1.65;;;17.20;64.70;;;;;;5116039;28;20033;-37
2021/05/20 07:01:46;;;;;;;5.18;1.90;;;17.30;64.20;;;;;;5115742;28;20058;-38
2021/05/20 07:04:13;;;;;;;3.30;1.63;;;17.30;64.50;;;;;;5115241;28;20046;-37
2021/05/20 07:06:39;;;;;;;3.55;1.50;;;17.40;64.60;;;;;;5116029;28;20038;-37
2021/05/20 07:09:05;;;;;;;10.43;2.25;;;17.50;63.60;;;;;;5115148;28;20028;-37
2021/05/20 07:11:32;;;;;;;2.33;1.40;;;17.50;63.10;;;;;;5115738;28;20028;-35
2021/05/20 07:13:58;;;;;;;6.30;2.10;;;17.60;61.60;;;;;;5114344;28;20034;-35
2021/05/20 07:16:24;;;;;;;3.15;1.80;;;17.50;61.90;;;;;;5097350;28;20045;-35
2021/05/20 07:18:50;;;;;;;10.40;2.25;;;17.60;62.60;;;;;;5096878;28;20407;-35
2021/05/20 07:21:15;;;;;;;9.77;1.92;;;17.60;62.70;;;;;;5115971;28;20024;-35
2021/05/20 07:23:41;;;;;;;19.40;2.58;;;17.60;61.50;;;;;;5115237;28;20032;-35
2021/05/20 07:26:06;;;;;;;6.80;2.00;;;17.70;61.30;;;;;;5115641;28;20430;-35
2021/05/20 07:28:32;;;;;;;5.72;1.40;;;17.70;62.00;;;;;;5115047;28;20067;-35
2021/05/20 07:30:58;;;;;;;2.65;1.35;;;17.80;61.80;;;;;;5115512;28;20036;-35
2021/05/20 07:33:25;;;;;;;9.55;2.72;;;17.80;61.80;;;;;;5114884;28;20035;-35
2021/05/20 07:35:51;;;;;;;5.18;1.80;;;17.80;60.60;;;;;;5115334;28;20015;-36
2021/05/20 07:38:17;;;;;;;2.20;1.50;;;17.90;60.60;;;;;;5111608;28;20114;-37
2021/05/20 07:40:42;;;;;;;5.80;2.67;;;18.00;60.40;;;;;;5113557;28;20394;-35
2021/05/20 07:43:08;;;;;;;3.88;2.20;;;18.00;59.60;;;;;;5115191;28;20032;-35
2021/05/20 07:45:34;;;;;;;5.63;2.15;;;18.10;59.90;;;;;;5117492;28;20412;-35
2021/05/20 07:47:59;;;;;;;5.00;1.88;;;18.10;59.80;;;;;;5119068;28;20035;-36
2021/05/20 07:50:25;;;;;;;3.13;1.52;;;18.20;59.10;;;;;;5118458;28;20031;-35
2021/05/20 07:52:51;;;;;;;3.42;1.50;;;18.20;58.30;;;;;;5118431;28;20479;-35
2021/05/20 07:55:17;;;;;;;6.40;1.50;;;18.30;57.80;;;;;;5118465;28;20300;-35
2021/05/20 07:57:43;;;;;;;7.05;1.98;;;18.30;58.00;;;;;;5118258;28;20035;-35
2021/05/20 08:00:12;;;;;;;4.00;1.50;;;18.30;58.20;;;;;;5118441;28;20050;-37
2021/05/20 08:02:49;;;;;;;1.58;1.45;;;18.40;57.50;;;;;;5118980;28;20059;-37
2021/05/20 08:05:30;;;;;;;2.55;1.23;;;18.50;56.50;;;;;;5118324;28;20427;-37
2021/05/20 08:13:22;;;;;;;5.07;2.22;;;18.60;56.70;;;;;;5117746;28;20082;-35
2021/05/20 08:15:48;;;;;;;4.47;3.15;;;18.60;55.60;;;;;;5118317;28;20422;-35
2021/05/20 08:18:15;;;;;;;4.43;2.13;;;18.60;55.70;;;;;;5118236;28;20081;-37
2021/05/20 08:20:41;;;;;;;2.17;1.88;;;18.70;56.40;;;;;;5118497;28;20023;-37
2021/05/20 08:23:07;;;;;;;4.10;1.70;;;18.70;56.70;;;;;;5118633;28;20036;-37
2021/05/20 08:25:32;;;;;;;2.35;1.60;;;18.80;55.80;;;;;;5117866;28;20024;-37
2021/05/20 08:27:58;;;;;;;6.38;2.17;;;18.90;55.50;;;;;;5113784;28;20038;-35
2021/05/20 08:30:24;;;;;;;5.95;1.50;;;18.90;56.00;;;;;;5118091;28;20024;-37
2021/05/20 08:32:50;;;;;;;2.65;1.50;;;19.00;55.40;;;;;;5118190;28;20438;-36
2021/05/20 08:35:16;;;;;;;4.32;1.50;;;19.10;54.50;;;;;;5117582;28;20023;-35
2021/05/20 08:37:43;;;;;;;3.95;1.30;;;19.10;54.50;;;;;;5117506;28;20419;-35
2021/05/20 08:40:13;;;;;;;2.80;1.40;;;19.20;54.20;;;;;;5117925;28;20026;-35
2021/05/20 08:42:38;;;;;;;5.50;1.50;;;19.20;54.70;;;;;;5118040;28;20032;-37
2021/05/20 08:45:12;;;;;;;11.23;1.90;;;19.20;53.70;;;;;;5117752;28;20400;-35
2021/05/20 08:47:39;;;;;;;5.65;1.42;;;19.30;54.40;;;;;;5117351;28;20039;-38
2021/05/20 08:50:06;;;;;;;5.32;1.48;;;19.40;53.60;;;;;;5117599;28;20051;-37
2021/05/20 08:52:33;;;;;;;3.15;1.50;;;19.50;53.30;;;;;;5117643;28;20039;-38
2021/05/20 08:54:59;;;;;;;6.03;1.90;;;19.60;53.00;;;;;;5128064;27;20027;-37
2021/05/20 08:57:25;;;;;;;3.08;1.40;;;19.70;52.50;;;;;;5137641;27;20352;-38
2021/05/20 08:59:51;;;;;;;3.10;1.58;;;19.70;52.60;;;;;;5137590;27;20119;-37
2021/05/20 09:02:28;;;;;;;5.88;1.55;;;19.80;53.00;;;;;;5137783;27;20495;-37
2021/05/20 09:05:06;;;;;;;6.68;2.05;;;19.90;52.80;;;;;;5138125;27;20107;-37
2021/05/20 09:07:35;;;;;;;4.22;1.92;;;20.00;51.70;;;;;;5137981;27;20296;-37
2021/05/20 09:10:13;;;;;;;6.55;1.90;;;20.10;51.00;;;;;;5136406;27;20027;-38
2021/05/20 09:12:39;;;;;;;3.97;1.80;;;20.10;50.30;;;;;;5137682;27;20038;-35
2021/05/20 09:15:13;;;;;;;4.07;1.73;;;20.10;51.10;;;;;;5137708;27;20033;-35
2021/05/20 09:17:38;;;;;;;8.38;2.90;;;20.20;51.20;;;;;;5137567;27;20046;-37
2021/05/20 09:20:05;;;;;;;4.55;1.58;;;20.20;51.60;;;;;;5137646;27;20423;-35
2021/05/20 09:22:31;;;;;;;2.00;1.52;;;20.30;51.00;;;;;;5137516;27;20039;-35
2021/05/20 09:24:59;;;;;;;3.78;1.50;;;20.30;50.80;;;;;;5137630;27;20350;-37
2021/05/20 09:27:36;;;;;;;4.57;1.58;;;20.30;49.80;;;;;;5137682;27;20035;-35
2021/05/20 09:30:25;;;;;;;10.18;2.67;;;20.40;49.10;;;;;;5135908;27;20438;-35
2021/05/20 09:32:57;;;;;;;3.85;1.42;;;20.30;49.40;;;;;;5135256;27;20093;-38
2021/05/20 09:35:32;;;;;;;2.17;1.77;;;20.30;49.80;;;;;;5137809;27;20043;-35
2021/05/20 09:38:05;;;;;;;8.40;3.95;;;20.40;50.10;;;;;;5137556;27;20027;-38
2021/05/20 09:40:34;;;;;;;6.70;1.80;;;20.40;50.10;;;;;;5137596;27;20033;-37
2021/05/20 09:43:00;;;;;;;3.58;1.80;;;20.50;50.30;;;;;;5137189;27;20046;-37
2021/05/20 09:45:28;;;;;;;4.38;1.98;;;20.50;50.60;;;;;;5137768;27;20027;-37
2021/05/20 09:48:06;;;;;;;6.85;2.22;;;20.60;50.40;;;;;;5137507;27;20031;-38
2021/05/20 09:50:54;;;;;;;4.40;2.40;;;20.60;49.70;;;;;;5137556;27;20482;-37
2021/05/20 09:53:22;;;;;;;4.28;2.17;;;20.70;50.10;;;;;;5136882;27;20426;-35
2021/05/20 09:55:59;;;;;;;2.78;1.70;;;20.70;50.20;;;;;;5137035;27;20326;-36
2021/05/20 09:58:27;;;;;;;4.50;1.70;;;20.70;49.60;;;;;;5137113;27;20043;-35
2021/05/20 10:01:00;;;;;;;6.57;1.95;;;20.80;49.30;;;;;;5137204;27;20108;-36
2021/05/20 10:03:28;;;;;;;7.35;2.90;;;20.80;49.20;;;;;;5137017;27;21658;-35
2021/05/20 10:06:04;;;;;;;3.67;2.10;;;20.90;48.70;;;;;;5137661;27;20321;-37
2021/05/20 10:08:32;;;;;;;3.83;1.67;;;20.80;48.90;;;;;;5136388;27;20035;-36
2021/05/20 10:11:03;;;;;;;5.00;1.77;;;20.80;48.90;;;;;;5137500;27;20026;-37
2021/05/20 10:13:29;;;;;;;8.90;1.77;;;20.90;49.20;;;;;;5136443;27;20102;-37
2021/05/20 10:15:57;;;;;;;1.77;1.27;;;21.00;49.00;;;;;;5137297;27;20019;-35
2021/05/20 10:18:28;;;;;;;5.43;2.10;;;21.10;48.10;;;;;;5136689;27;20076;-35
2021/05/20 10:20:57;;;;;;;5.78;2.60;;;21.20;48.60;;;;;;5137112;27;20111;-37
2021/05/20 10:23:25;;;;;;;5.50;1.83;;;21.30;48.60;;;;;;5132185;27;20050;-37
2021/05/20 10:25:56;;;;;;;2.17;1.52;;;21.30;48.40;;;;;;5136887;27;20417;-37
2021/05/20 10:28:23;;;;;;;6.43;1.58;;;21.40;48.80;;;;;;5136966;27;20035;-37
2021/05/20 10:30:50;;;;;;;2.17;1.52;;;21.50;48.00;;;;;;5137088;27;20367;-37
2021/05/20 10:33:18;;;;;;;3.50;1.42;;;21.60;47.40;;;;;;5131703;27;20269;-37
2021/05/20 10:35:52;;;;;;;3.58;1.30;;;21.70;48.00;;;;;;5136864;27;20019;-37
2021/05/20 10:38:36;;;;;;;6.30;1.75;;;21.80;47.30;;;;;;5136205;27;20020;-37
2021/05/20 10:41:15;;;;;;;2.35;1.58;;;22.00;47.20;;;;;;5136914;27;20019;-36
2021/05/20 10:43:43;;;;;;;3.50;2.08;;;22.10;47.10;;;;;;5136225;27;20031;-36
2021/05/20 10:46:13;;;;;;;5.35;2.17;;;22.20;46.30;;;;;;5136848;27;20122;-36
2021/05/20 10:49:00;;;;;;;6.38;2.35;;;22.30;46.60;;;;;;5135855;27;20031;-37
2021/05/20 10:51:32;;;;;;;5.35;1.50;;;22.40;46.10;;;;;;5136391;27;20027;-36
2021/05/20 10:54:03;;;;;;;4.05;1.42;;;22.50;45.50;;;;;;5135908;27;20043;-36
2021/05/20 10:56:29;;;;;;;3.22;1.48;;;22.50;45.40;;;;;;5136201;27;20023;-36
2021/05/20 10:58:57;;;;;;;4.15;2.20;;;22.50;44.80;;;;;;5135995;28;20316;-43
2021/05/20 11:01:27;;;;;;;2.53;1.58;;;22.50;44.90;;;;;;5135752;28;20307;-36
2021/05/20 11:03:57;;;;;;;4.20;2.22;;;22.50;44.80;;;;;;5136056;28;20370;-36
2021/05/20 11:06:35;;;;;;;3.38;2.55;;;22.50;44.70;;;;;;5136407;28;20035;-36
2021/05/20 11:09:02;;;;;;;9.35;4.10;;;22.40;45.00;;;;;;5136159;28;20375;-36
2021/05/20 11:11:31;;;;;;;6.93;2.10;;;22.30;45.60;;;;;;5135873;28;20031;-36
2021/05/20 11:14:04;;;;;;;5.13;1.90;;;22.20;45.30;;;;;;5135879;28;20027;-36
2021/05/20 11:16:35;;;;;;;9.73;2.47;;;22.20;45.20;;;;;;5134878;28;20019;-36
2021/05/20 11:19:16;;;;;;;8.65;2.42;;;22.10;45.80;;;;;;5134563;27;20039;-36
2021/05/20 11:21:58;;;;;;;8.15;1.90;;;22.10;45.80;;;;;;5117641;28;20027;-36
2021/05/20 11:24:28;;;;;;;3.55;1.75;;;22.00;46.10;;;;;;5117508;28;20351;-37
2021/05/20 11:26:55;;;;;;;4.13;1.77;;;22.00;46.80;;;;;;5139621;27;20035;-36
2021/05/20 11:29:25;;;;;;;3.25;2.03;;;22.00;47.10;;;;;;5139395;27;20125;-36
2021/05/20 11:31:56;;;;;;;4.20;1.40;;;22.10;47.10;;;;;;5140019;27;20034;-36
2021/05/20 11:37:01;;;;;;;2.72;1.58;;;22.20;46.20;;;;;;5139929;27;20118;-36
2021/05/20 11:39:27;;;;;;;6.70;1.90;;;22.40;46.00;;;;;;5139318;27;20119;-36
2021/05/20 11:41:53;;;;;;;9.25;2.70;;;22.50;46.30;;;;;;5139902;27;20024;-37
2021/05/20 11:44:25;;;;;;;2.47;1.58;;;22.60;45.70;;;;;;5139637;27;20031;-36
2021/05/20 11:47:05;;;;;;;3.47;1.30;;;22.60;44.30;;;;;;5139646;27;20387;-36
2021/05/20 11:49:31;;;;;;;3.38;1.27;;;22.60;45.20;;;;;;5139109;27;20106;-36
2021/05/20 11:52:02;;;;;;;1.45;1.35;;;22.60;44.90;;;;;;5139236;27;20031;-36
2021/05/20 11:54:30;;;;;;;2.47;1.48;;;22.60;44.80;;;;;;5139642;27;20023;-36
2021/05/20 11:56:58;;;;;;;3.95;2.35;;;22.70;45.30;;;;;;5139625;27;20042;-37
2021/05/20 11:59:36;;;;;;;5.07;1.80;;;22.70;44.70;;;;;;5139455;27;20346;-36
2021/05/20 12:02:34;;;;;;;8.02;2.33;;;22.80;44.80;;;;;;5139659;27;20042;-36
2021/05/20 12:05:10;;;;;;;5.22;2.10;;;22.80;44.90;;;;;;5117909;27;20114;-36
2021/05/20 12:07:38;;;;;;;4.47;2.10;;;22.70;44.10;;;;;;5139019;27;20051;-36
2021/05/20 12:10:22;;;;;;;3.97;2.15;;;22.60;44.30;;;;;;5139281;27;20023;-36
2021/05/20 12:13:07;;;;;;;6.82;2.10;;;22.60;43.70;;;;;;5137851;27;20431;-36
2021/05/20 12:15:32;;;;;;;4.35;1.60;;;22.50;44.00;;;;;;5139000;27;20034;-36
2021/05/20 12:18:00;;;;;;;5.35;3.75;;;22.50;44.30;;;;;;5138860;27;20134;-37
2021/05/20 12:20:27;;;;;;;10.27;2.97;;;22.50;44.60;;;;;;5138769;27;20038;-36
2021/05/20 12:22:54;;;;;;;7.00;2.65;;;22.50;45.10;;;;;;5138478;27;20104;-36
2021/05/20 12:25:23;;;;;;;4.43;2.60;;;22.60;45.20;;;;;;5120169;27;20042;-36
2021/05/20 12:27:56;;;;;;;7.00;3.20;;;22.70;45.30;;;;;;5138646;27;20031;-36
2021/05/20 12:30:28;;;;;;;5.93;2.30;;;22.90;45.00;;;;;;5138271;27;20027;-36
2021/05/20 12:33:03;;;;;;;2.75;2.13;;;23.10;44.80;;;;;;5135226;27;20051;-36
2021/05/20 12:35:30;;;;;;;5.38;1.73;;;23.30;44.20;;;;;;5138736;27;20318;-36
2021/05/20 12:38:01;;;;;;;4.93;1.65;;;23.30;44.10;;;;;;5138172;27;20031;-36
2021/05/20 12:40:43;;;;;;;2.42;1.48;;;23.30;44.20;;;;;;5138471;27;20417;-36
2021/05/20 12:43:37;;;;;;;3.83;1.55;;;23.20;44.40;;;;;;5119812;27;20059;-36
2021/05/20 12:46:06;;;;;;;4.30;2.20;;;23.10;44.70;;;;;;5118188;28;20111;-36
2021/05/20 12:48:52;;;;;;;4.80;1.40;;;22.90;44.80;;;;;;5128393;27;20119;-36
2021/05/20 12:51:18;;;;;;;4.07;1.73;;;22.80;45.30;;;;;;5138832;27;20118;-36
2021/05/20 12:53:50;;;;;;;4.55;1.60;;;22.60;45.50;;;;;;5137156;27;20106;-36
2021/05/20 12:56:28;;;;;;;8.30;2.00;;;22.50;45.90;;;;;;5138561;27;20026;-36
2021/05/20 12:58:55;;;;;;;2.95;2.30;;;22.50;46.40;;;;;;5138163;27;20023;-37
2021/05/20 13:01:24;;;;;;;5.05;2.50;;;22.60;46.30;;;;;;5138424;27;20047;-36